Flight Track Log - Related Links

Times and Time Zones

All times are in EDT time to prevent confusion due to time zone crossing. See the SWA2624 flight status page for this flight to view local times or setup timezone preferences in your user account.

Time Position Orientation Groundspeed Altitude Reporting Facility
EDT Latitude Longitude Course Direction KTS MPH feet Rate Location/Type
Fri 12:52:06 AM 35.0158 -106.6408 283° West 169 194 6,200  Level Albuquerque Center
Fri 12:52:24 AM 35.0186 -106.6558 283° West 171 197 6,700 1,595 Climbing Albuquerque Center
Fri 12:53:25 AM 35.0450 -106.7217 296° West 231 266 8,300 1,829 Climbing Albuquerque Center
Fri 12:54:09 AM 35.0678 -106.7703 300° West 257 296 9,900 2,000 Climbing Albuquerque Center
Fri 12:55:10 AM 35.1008 -106.8628 294° West 301 346 11,800 2,705 Climbing Albuquerque Center
Fri 12:56:11 AM 35.1214 -106.9964 281° West 342 394 15,400 3,197 Climbing Albuquerque Center
Fri 12:57:12 AM 35.1389 -107.1158 280° West 354 407 18,300 2,826 Climbing Albuquerque Center
Fri 12:58:12 AM 35.1511 -107.2411 277° West 375 432 21,100 2,529 Climbing Albuquerque Center
Fri 12:59:13 AM 35.1642 -107.3739 277° West 390 449 23,400 2,311 Climbing Albuquerque Center
Fri 01:00:14 AM 35.1778 -107.5108 277° West 401 461 25,800 2,262 Climbing Albuquerque Center
Fri 01:01:15 AM 35.1936 -107.6669 277° West 418 481 28,000 2,361 Climbing Albuquerque Center
Fri 01:02:16 AM 35.2064 -107.8086 276° West 432 497 30,600 2,459 Climbing Albuquerque Center
Fri 01:03:17 AM 35.2192 -107.9422 277° West 421 484 33,000 1,686 Climbing Albuquerque Center
Fri 01:04:17 AM 35.2344 -108.0944 277° West 407 468 34,000 496 Climbing Albuquerque Center
Fri 01:05:18 AM 35.2469 -108.2278 277° West 410 472 34,000  Level Albuquerque Center
Fri 01:06:19 AM 35.2594 -108.3594 277° West 408 470 34,000 984 Level Albuquerque Center
Fri 01:07:20 AM 35.2747 -108.5147 277° West 410 472 36,000 984 Climbing Albuquerque Center
Fri 01:08:21 AM 35.2861 -108.6408 276° West 398 458 36,000  Level Albuquerque Center
Fri 01:09:22 AM 35.2967 -108.7675 276° West 392 451 36,000  Level Albuquerque Center
Fri 01:11:00 AM 35.3136 -108.9731 276° West  Level FlightAware Approximate
Fri 01:12:24 AM 35.3328 -109.1692 276° West 390 449 36,000  Level Albuquerque Center
Fri 01:13:25 AM 35.3439 -109.2972 276° West 393 452 36,000  Level Albuquerque Center
Fri 01:14:26 AM 35.3569 -109.4489 276° West 398 458 36,000  Level Albuquerque Center
Fri 01:15:26 AM 35.3675 -109.5783 276° West 400 460 36,000  Level Albuquerque Center
Fri 01:16:27 AM 35.3778 -109.7075 276° West 400 460 36,000  Level Albuquerque Center
Fri 01:17:28 AM 35.3886 -109.8561 275° West 395 455 36,000  Level Albuquerque Center
Fri 01:18:29 AM 35.3978 -109.9836 275° West 392 451 36,000  Level Albuquerque Center
Fri 01:19:29 AM 35.4069 -110.1094 275° West 391 450 36,000  Level Albuquerque Center
Fri 01:20:30 AM 35.4181 -110.2614 275° West 397 457 36,000  Level Albuquerque Center
Fri 01:21:31 AM 35.4278 -110.3911 275° West 401 461 36,000  Level Albuquerque Center
Fri 01:22:32 AM 35.4361 -110.5217 275° West 401 461 36,000  Level Albuquerque Center
Fri 01:23:33 AM 35.4481 -110.6761 275° West 405 466 36,000  Level Albuquerque Center
Fri 01:24:33 AM 35.4575 -110.8092 275° West 408 470 36,000  Level Albuquerque Center
Fri 01:25:34 AM 35.4675 -110.9439 275° West 412 474 36,000  Level Albuquerque Center
Fri 01:26:35 AM 35.4789 -111.1011 275° West 415 478 36,000  Level Albuquerque Center
Fri 01:27:35 AM 35.4875 -111.2375 274° West 417 480 36,000  Level Albuquerque Center
Fri 01:28:36 AM 35.4975 -111.3744 275° West 419 482 36,000  Level Albuquerque Center
Fri 01:29:37 AM 35.5069 -111.5139 275° West 430 495 36,000  Level Albuquerque Center
Fri 01:30:37 AM 35.5172 -111.6564 275° West 428 493 36,000  Level Albuquerque Center
Fri 01:31:38 AM 35.5264 -111.8233 274° West 415 478 36,000  Level Albuquerque Center
Fri 01:32:39 AM 35.5358 -111.9639 275° West 415 478 36,000  Level Albuquerque Center
Fri 01:33:40 AM 35.5444 -112.1053 274° West 416 479 36,000  Level Albuquerque Center
Fri 01:34:40 AM 35.5536 -112.2461 275° West 418 481 36,000  Level Albuquerque Center
Fri 01:35:41 AM 35.5617 -112.3869 274° West 417 480 36,000  Level Albuquerque Center
Fri 01:36:42 AM 35.5700 -112.5286 274° West 420 483 36,000  Level Albuquerque Center
Fri 01:37:42 AM 35.5789 -112.6689 274° West 419 482 36,000  Level Albuquerque Center
Fri 01:38:43 AM 35.5864 -112.8092 274° West 419 482 36,000  Level Albuquerque Center
Fri 01:39:42 AM 35.5944 -112.9636 274° West 421 484 36,000 -1,200 Level Los Angeles Center
Fri 01:40:43 AM 35.6022 -113.1028 274° West 411 473 33,600 -2,585 Descending Los Angeles Center
Fri 01:41:45 AM 35.6092 -113.2450 273° West 415 478 30,700 -2,634 Descending Los Angeles Center
Fri 01:42:46 AM 35.6175 -113.3947 274° West 416 479 28,200 -2,361 Descending Los Angeles Center
Fri 01:43:47 AM 35.6242 -113.5306 273° West 403 464 25,900 -2,262 Descending Los Angeles Center
Fri 01:44:48 AM 35.6414 -113.6617 279° West 393 452 23,600 -2,213 Descending Los Angeles Center
Fri 01:45:49 AM 35.6600 -113.7889 280° West 383 441 21,400 -2,146 Descending Los Angeles Center
Fri 01:46:51 AM 35.6772 -113.9139 280° West 374 430 19,200 -2,000 Descending Los Angeles Center
Fri 01:47:52 AM 35.6942 -114.0350 280° West 363 418 17,300 -2,213 Descending Los Angeles Center
Fri 01:48:53 AM 35.7142 -114.1761 280° West 356 410 14,700 -2,370 Descending Los Angeles Center
Fri 01:49:13 AM 35.7208 -114.2108 283° West 358 412 14,100 -2,066 Descending Los Angeles Center
Fri 01:49:54 AM 35.7297 -114.2922 278° West 346 398 12,600 -1,471 Descending Los Angeles Center
Fri 01:50:55 AM 35.7600 -114.3950 290° West 336 387 11,600 -984 Descending Los Angeles Center
Fri 01:51:56 AM 35.8258 -114.4667 319° Northwest 320 368 10,600 -1,024 Descending Los Angeles Center
Fri 01:52:58 AM 35.8886 -114.5314 320° Northwest 304 350 9,500 -1,122 Descending Los Angeles Center
Fri 01:53:59 AM 35.9342 -114.6053 307° West 282 325 8,300 -787 Descending Los Angeles Center
Fri 01:55:00 AM 35.9681 -114.6881 297° West 275 316 7,900 -393 Descending Los Angeles Center
Fri 01:56:01 AM 36.0000 -114.7650 297° West 265 305 7,500 -750 Descending Los Angeles Center
Fri 01:57:00 AM 36.0350 -114.8519 296° West 241 277 6,400 -1,100 Descending Los Angeles Center
Fri 01:58:01 AM 36.0667 -114.9267 298° West 243 280 5,300 -1,180 Descending Los Angeles Center
Fri 01:59:02 AM 36.0742 -115.0011 277° West 219 252 4,000 -1,140 Descending Los Angeles Center
Fri 02:00:02 AM 36.0725 -115.0628 268° West 169 194 3,000 -893 Descending Los Angeles Center
Fri 02:01:03 AM 36.0728 -115.1133 270° West 144 166 2,200 -787 Descending Los Angeles Center
Fri 02:03:00 AM 36.0667 -115.1500 270° West  Level FlightAware Approximate

Login

Don't have an account? Register now (free) for customized features, flight alerts, and more!